createdAt,value
2018-02-17T00:00:22.192Z,1020.08
2018-02-17T00:00:48.296Z,1020.1
2018-02-17T00:01:14.413Z,1020.09
2018-02-17T00:01:40.546Z,1020.05
2018-02-17T00:02:06.712Z,1020.06
2018-02-17T00:02:32.838Z,1020.06
2018-02-17T00:02:59.068Z,1020.06
2018-02-17T00:03:25.170Z,1020.13
2018-02-17T00:03:51.296Z,1020.12
2018-02-17T00:04:17.409Z,1020.09
2018-02-17T00:04:43.585Z,1020.07
2018-02-17T00:05:09.680Z,1020.07
2018-02-17T00:05:35.798Z,1020.08
2018-02-17T00:06:01.938Z,1020.05
2018-02-17T00:06:28.051Z,1020.07
2018-02-17T00:06:54.152Z,1020.02
2018-02-17T00:07:20.249Z,1020.05
2018-02-17T00:07:46.349Z,1020.02
2018-02-17T00:08:12.529Z,1019.99
2018-02-17T00:08:38.632Z,1020.01
2018-02-17T00:09:04.813Z,1020.01
2018-02-17T00:09:30.909Z,1019.98
2018-02-17T00:09:57.014Z,1019.97
2018-02-17T00:10:23.109Z,1019.95
2018-02-17T00:10:49.208Z,1019.96
2018-02-17T00:11:15.307Z,1019.98
2018-02-17T00:11:41.414Z,1019.94
2018-02-17T00:12:07.732Z,1019.96
2018-02-17T00:12:33.876Z,1019.94
2018-02-17T00:13:00.063Z,1019.93
2018-02-17T00:13:26.160Z,1019.93
2018-02-17T00:13:52.252Z,1019.95
2018-02-17T00:14:18.354Z,1019.96
2018-02-17T00:14:44.464Z,1019.98
2018-02-17T00:15:11.325Z,1019.95
2018-02-17T00:15:37.430Z,1019.93
2018-02-17T00:16:03.524Z,1019.96
2018-02-17T00:16:29.630Z,1019.94
2018-02-17T00:16:55.730Z,1019.99
2018-02-17T00:17:22.095Z,1019.93
2018-02-17T00:17:48.342Z,1019.98
2018-02-17T00:18:14.441Z,1019.96
2018-02-17T00:18:40.538Z,1019.96
2018-02-17T00:19:06.647Z,1019.93
2018-02-17T00:19:32.752Z,1019.91
2018-02-17T00:19:58.914Z,1019.94
2018-02-17T00:20:25.357Z,1019.95
2018-02-17T00:20:51.455Z,1019.93
2018-02-17T00:21:17.559Z,1019.94
2018-02-17T00:21:43.653Z,1019.95
2018-02-17T00:22:09.754Z,1019.94
2018-02-17T00:22:35.855Z,1019.93
2018-02-17T00:23:01.957Z,1019.94
2018-02-17T00:23:28.074Z,1019.93
2018-02-17T00:23:54.158Z,1019.92
2018-02-17T00:24:20.404Z,1019.91
2018-02-17T00:24:46.507Z,1019.89
2018-02-17T00:25:12.603Z,1019.89
2018-02-17T00:25:38.703Z,1019.92
2018-02-17T00:26:04.799Z,1019.93
2018-02-17T00:26:30.903Z,1019.88
2018-02-17T00:26:56.997Z,1019.93
2018-02-17T00:27:23.104Z,1019.9
2018-02-17T00:27:49.204Z,1019.92
2018-02-17T00:28:15.299Z,1019.96
2018-02-17T00:28:41.408Z,1019.95
2018-02-17T00:29:07.507Z,1019.95
2018-02-17T00:29:33.602Z,1019.95
2018-02-17T00:29:59.716Z,1019.97
2018-02-17T00:30:25.898Z,1019.98
2018-02-17T00:30:52.028Z,1019.98
2018-02-17T00:31:18.168Z,1019.98
2018-02-17T00:31:44.279Z,1019.97
2018-02-17T00:32:10.402Z,1019.99
2018-02-17T00:32:36.484Z,1019.97
2018-02-17T00:33:02.586Z,1020
2018-02-17T00:33:28.690Z,1019.97
2018-02-17T00:33:54.792Z,1019.97
2018-02-17T00:34:20.888Z,1019.97
2018-02-17T00:34:46.992Z,1020.01
2018-02-17T00:35:13.087Z,1019.98
2018-02-17T00:35:39.183Z,1020.01
2018-02-17T00:36:05.282Z,1020.01
2018-02-17T00:36:31.381Z,1019.98
2018-02-17T00:36:57.505Z,1019.98
2018-02-17T00:37:23.610Z,1019.99
2018-02-17T00:37:49.704Z,1019.98
2018-02-17T00:38:15.836Z,1019.98
2018-02-17T00:38:41.953Z,1019.99
2018-02-17T00:39:08.049Z,1020.02
2018-02-17T00:39:34.568Z,1020.01
2018-02-17T00:40:01.327Z,1020.02
2018-02-17T00:40:27.421Z,1020.01
2018-02-17T00:40:53.526Z,1020.03
2018-02-17T00:41:19.619Z,1020.02
2018-02-17T00:41:45.717Z,1020.04
2018-02-17T00:42:11.822Z,1020.07
2018-02-17T00:42:37.915Z,1020
2018-02-17T00:43:04.020Z,1020.06
2018-02-17T00:43:30.115Z,1020.05
2018-02-17T00:43:56.219Z,1020.05
2018-02-17T00:44:22.395Z,1020.03
2018-02-17T00:44:48.498Z,1020.02
2018-02-17T00:45:14.588Z,1019.99
2018-02-17T00:45:40.722Z,1020.02
2018-02-17T00:46:06.815Z,1020
2018-02-17T00:46:32.936Z,1019.99
2018-02-17T00:46:59.034Z,1019.99
2018-02-17T00:47:25.152Z,1020.03
2018-02-17T00:47:51.254Z,1020.02
2018-02-17T00:48:17.349Z,1020
2018-02-17T00:48:43.448Z,1020.02
2018-02-17T00:49:09.553Z,1020.02
2018-02-17T00:49:35.680Z,1020.03
2018-02-17T00:50:01.774Z,1020.04
2018-02-17T00:50:27.878Z,1020.02
2018-02-17T00:50:53.980Z,1020.02
2018-02-17T00:51:20.125Z,1020.04
2018-02-17T00:51:46.238Z,1020.04
2018-02-17T00:52:12.338Z,1020.04
2018-02-17T00:52:38.442Z,1020.01
2018-02-17T00:53:04.537Z,1020.01
2018-02-17T00:53:30.656Z,1019.97
2018-02-17T00:53:56.790Z,1019.98
2018-02-17T00:54:22.892Z,1019.97
2018-02-17T00:54:48.994Z,1019.93
2018-02-17T00:55:15.084Z,1019.94
2018-02-17T00:55:41.183Z,1019.93
2018-02-17T00:56:07.292Z,1019.93
2018-02-17T00:56:33.375Z,1019.89
2018-02-17T00:56:59.477Z,1019.88
2018-02-17T00:57:25.580Z,1019.87
2018-02-17T00:57:51.676Z,1019.86
2018-02-17T00:58:17.778Z,1019.83
2018-02-17T00:58:43.882Z,1019.78
2018-02-17T00:59:09.979Z,1019.82
2018-02-17T00:59:36.085Z,1019.84
2018-02-17T01:00:02.206Z,1019.84
2018-02-17T01:00:28.320Z,1019.81
2018-02-17T01:00:54.419Z,1019.82
2018-02-17T01:01:20.523Z,1019.82
2018-02-17T01:01:46.626Z,1019.82
2018-02-17T01:02:12.723Z,1019.84
2018-02-17T01:02:38.817Z,1019.82
2018-02-17T01:03:04.937Z,1019.85
2018-02-17T01:03:31.040Z,1019.85
2018-02-17T01:03:57.136Z,1019.83
2018-02-17T01:04:23.237Z,1019.84
2018-02-17T01:04:49.365Z,1019.87
2018-02-17T01:05:15.472Z,1019.86
2018-02-17T01:05:41.573Z,1019.91
2018-02-17T01:06:10.702Z,1019.88
2018-02-17T01:06:36.806Z,1019.9
2018-02-17T01:07:02.925Z,1019.92
2018-02-17T01:07:29.037Z,1019.89
2018-02-17T01:07:55.142Z,1019.85
2018-02-17T01:08:21.236Z,1019.88
2018-02-17T01:08:47.339Z,1019.87
2018-02-17T01:09:13.434Z,1019.85
2018-02-17T01:09:39.531Z,1019.88
2018-02-17T01:10:05.635Z,1019.83
2018-02-17T01:10:31.769Z,1019.82
2018-02-17T01:10:57.862Z,1019.85
2018-02-17T01:11:23.961Z,1019.86
2018-02-17T01:11:50.067Z,1019.82
2018-02-17T01:12:16.163Z,1019.85
2018-02-17T01:12:42.266Z,1019.81
2018-02-17T01:13:08.362Z,1019.84
2018-02-17T01:13:34.465Z,1019.81
2018-02-17T01:14:00.591Z,1019.83
2018-02-17T01:14:26.680Z,1019.83
2018-02-17T01:14:52.786Z,1019.82
2018-02-17T01:15:18.887Z,1019.84
2018-02-17T01:15:44.987Z,1019.85
2018-02-17T01:16:11.095Z,1019.85
2018-02-17T01:16:37.211Z,1019.82
2018-02-17T01:17:03.302Z,1019.83
2018-02-17T01:17:29.405Z,1019.83
2018-02-17T01:17:55.504Z,1019.83
2018-02-17T01:18:21.603Z,1019.84
2018-02-17T01:18:47.704Z,1019.83
2018-02-17T01:19:13.808Z,1019.82
2018-02-17T01:19:39.906Z,1019.84
2018-02-17T01:20:06.000Z,1019.82
2018-02-17T01:20:32.104Z,1019.8
2018-02-17T01:20:58.201Z,1019.76
2018-02-17T01:21:24.305Z,1019.76
2018-02-17T01:21:50.402Z,1019.8
2018-02-17T01:22:16.502Z,1019.78
2018-02-17T01:22:42.596Z,1019.8
2018-02-17T01:23:08.699Z,1019.77
2018-02-17T01:23:34.796Z,1019.78
2018-02-17T01:24:00.900Z,1019.81
2018-02-17T01:24:27.007Z,1019.82
2018-02-17T01:24:53.100Z,1019.78
2018-02-17T01:25:19.198Z,1019.83
2018-02-17T01:25:45.301Z,1019.79
2018-02-17T01:26:11.412Z,1019.86
2018-02-17T01:26:37.535Z,1019.84
2018-02-17T01:27:03.657Z,1019.82
2018-02-17T01:27:29.757Z,1019.8
2018-02-17T01:27:55.916Z,1019.8
2018-02-17T01:28:22.047Z,1019.77
2018-02-17T01:28:48.169Z,1019.77
2018-02-17T01:29:14.313Z,1019.78
2018-02-17T01:29:40.416Z,1019.72
2018-02-17T01:30:06.542Z,1019.71
2018-02-17T01:30:32.617Z,1019.7
2018-02-17T01:30:58.721Z,1019.68
2018-02-17T01:31:24.843Z,1019.67
2018-02-17T01:31:50.969Z,1019.67
2018-02-17T01:32:17.131Z,1019.65
2018-02-17T01:32:43.212Z,1019.64
2018-02-17T01:33:09.324Z,1019.59
2018-02-17T01:33:35.421Z,1019.58
2018-02-17T01:34:01.536Z,1019.58
2018-02-17T01:34:27.647Z,1019.57
2018-02-17T01:34:53.777Z,1019.53
2018-02-17T01:35:19.890Z,1019.53
2018-02-17T01:35:46.000Z,1019.53
2018-02-17T01:36:12.176Z,1019.52
2018-02-17T01:36:38.243Z,1019.48
2018-02-17T01:37:04.366Z,1019.48
2018-02-17T01:37:30.501Z,1019.49
2018-02-17T01:37:56.617Z,1019.53
2018-02-17T01:38:22.796Z,1019.5
2018-02-17T01:38:48.902Z,1019.47
2018-02-17T01:39:15.005Z,1019.48
2018-02-17T01:39:41.121Z,1019.49
2018-02-17T01:40:07.221Z,1019.49
2018-02-17T01:40:33.328Z,1019.44
2018-02-17T01:40:59.432Z,1019.48
2018-02-17T01:41:25.569Z,1019.47
2018-02-17T01:41:51.697Z,1019.47
2018-02-17T01:42:17.851Z,1019.4
2018-02-17T01:42:43.978Z,1019.44
2018-02-17T01:43:10.082Z,1019.41
2018-02-17T01:43:36.182Z,1019.42
2018-02-17T01:44:02.278Z,1019.42
2018-02-17T01:44:28.383Z,1019.44
2018-02-17T01:44:54.476Z,1019.4
2018-02-17T01:45:20.578Z,1019.42
2018-02-17T01:45:46.695Z,1019.4
2018-02-17T01:46:12.822Z,1019.37
2018-02-17T01:46:38.927Z,1019.4
2018-02-17T01:47:05.029Z,1019.37
2018-02-17T01:47:31.140Z,1019.4
2018-02-17T01:47:57.242Z,1019.37
2018-02-17T01:48:23.338Z,1019.42
2018-02-17T01:48:49.439Z,1019.37
2018-02-17T01:49:15.537Z,1019.39
2018-02-17T01:49:41.634Z,1019.38
2018-02-17T01:50:07.739Z,1019.38
2018-02-17T01:50:33.857Z,1019.39
2018-02-17T01:50:59.967Z,1019.39
2018-02-17T01:51:26.068Z,1019.39
2018-02-17T01:51:52.471Z,1019.38
2018-02-17T01:52:18.606Z,1019.35
2018-02-17T01:52:44.702Z,1019.38
2018-02-17T01:53:10.805Z,1019.35
2018-02-17T01:53:36.906Z,1019.33
2018-02-17T01:54:03.043Z,1019.37
2018-02-17T01:54:29.125Z,1019.33
2018-02-17T01:54:55.223Z,1019.3
2018-02-17T01:55:21.325Z,1019.29
2018-02-17T01:55:47.434Z,1019.31
2018-02-17T01:56:13.533Z,1019.27
2018-02-17T01:56:39.645Z,1019.26
2018-02-17T01:57:05.751Z,1019.26
2018-02-17T01:57:31.882Z,1019.22
2018-02-17T01:57:57.987Z,1019.23
2018-02-17T01:58:24.098Z,1019.24
2018-02-17T01:58:50.510Z,1019.26
2018-02-17T01:59:16.609Z,1019.22
2018-02-17T01:59:42.704Z,1019.2
2018-02-17T02:00:08.809Z,1019.2
2018-02-17T02:00:34.931Z,1019.21
2018-02-17T02:01:01.030Z,1019.17
2018-02-17T02:01:27.135Z,1019.21
2018-02-17T02:01:53.230Z,1019.19
2018-02-17T02:02:19.335Z,1019.16
2018-02-17T02:02:45.437Z,1019.2
2018-02-17T02:03:11.558Z,1019.2
2018-02-17T02:03:37.653Z,1019.15
2018-02-17T02:04:03.748Z,1019.16
2018-02-17T02:04:29.849Z,1019.15
2018-02-17T02:04:55.944Z,1019.15
2018-02-17T02:05:22.041Z,1019.14
2018-02-17T02:05:48.483Z,1019.16
2018-02-17T02:06:14.581Z,1019.15
2018-02-17T02:06:40.677Z,1019.11
2018-02-17T02:07:06.798Z,1019.12
2018-02-17T02:07:32.895Z,1019.12
2018-02-17T02:07:58.992Z,1019.13
2018-02-17T02:08:25.110Z,1019.13
2018-02-17T02:08:51.210Z,1019.12
2018-02-17T02:09:17.308Z,1019.11
2018-02-17T02:09:43.401Z,1019.12
2018-02-17T02:10:09.503Z,1019.09
2018-02-17T02:10:35.619Z,1019.1
2018-02-17T02:11:01.717Z,1019.14
2018-02-17T02:11:27.818Z,1019.11
2018-02-17T02:11:53.921Z,1019.06
2018-02-17T02:12:20.014Z,1019.08
2018-02-17T02:12:46.754Z,1019.1
2018-02-17T02:13:12.859Z,1019.09
2018-02-17T02:13:38.957Z,1019.12
2018-02-17T02:14:05.062Z,1019.13
2018-02-17T02:14:31.168Z,1019.06
2018-02-17T02:14:57.260Z,1019.09
2018-02-17T02:15:23.370Z,1019.06
2018-02-17T02:15:49.491Z,1019.05
2018-02-17T02:16:15.585Z,1019.04
2018-02-17T02:16:41.683Z,1019.06
2018-02-17T02:17:07.786Z,1019.04
2018-02-17T02:17:33.880Z,1019.01
2018-02-17T02:17:59.987Z,1019.08
2018-02-17T02:18:26.090Z,1019.02
2018-02-17T02:18:52.186Z,1019
2018-02-17T02:19:18.285Z,1019.04
2018-02-17T02:19:44.383Z,1019.01
2018-02-17T02:20:10.505Z,1019.03
2018-02-17T02:20:36.596Z,1018.98
2018-02-17T02:21:02.700Z,1019.01
2018-02-17T02:21:28.800Z,1019.01
2018-02-17T02:21:54.893Z,1018.96
2018-02-17T02:22:20.997Z,1018.97
2018-02-17T02:22:47.091Z,1018.99
2018-02-17T02:23:13.190Z,1018.92
2018-02-17T02:23:39.288Z,1018.97
2018-02-17T02:24:05.389Z,1018.95
2018-02-17T02:24:31.506Z,1018.99
2018-02-17T02:24:57.621Z,1018.96
2018-02-17T02:25:23.740Z,1018.96
2018-02-17T02:25:49.836Z,1018.95
2018-02-17T02:26:15.938Z,1018.99
2018-02-17T02:26:42.035Z,1018.97
2018-02-17T02:27:08.135Z,1018.95
2018-02-17T02:27:34.253Z,1018.99
2018-02-17T02:28:00.356Z,1018.97
2018-02-17T02:28:26.451Z,1018.96
2018-02-17T02:28:52.647Z,1018.95
2018-02-17T02:29:18.766Z,1018.96
2018-02-17T02:29:44.861Z,1018.96
2018-02-17T02:30:11.009Z,1018.92
2018-02-17T02:30:37.337Z,1018.97
2018-02-17T02:31:03.455Z,1018.96
2018-02-17T02:31:29.539Z,1018.93
2018-02-17T02:31:55.643Z,1018.94
2018-02-17T02:32:21.748Z,1018.93
2018-02-17T02:32:47.841Z,1018.95
2018-02-17T02:33:13.940Z,1018.93
2018-02-17T02:33:40.034Z,1018.91
2018-02-17T02:34:06.132Z,1018.9
2018-02-17T02:34:32.246Z,1018.91
2018-02-17T02:34:58.336Z,1018.91
2018-02-17T02:35:24.454Z,1018.91
2018-02-17T02:35:50.566Z,1018.89
2018-02-17T02:36:16.691Z,1018.89
2018-02-17T02:36:42.789Z,1018.85
2018-02-17T02:37:08.892Z,1018.9
2018-02-17T02:37:34.988Z,1018.93
2018-02-17T02:38:01.090Z,1018.94
2018-02-17T02:38:27.200Z,1018.9
2018-02-17T02:38:53.313Z,1018.95
2018-02-17T02:39:19.411Z,1018.96
2018-02-17T02:39:45.537Z,1018.98
2018-02-17T02:40:11.628Z,1018.99
2018-02-17T02:40:37.769Z,1019
2018-02-17T02:41:03.952Z,1019.02
2018-02-17T02:41:30.059Z,1019.03
2018-02-17T02:41:56.154Z,1019.03
2018-02-17T02:42:22.257Z,1019.06
2018-02-17T02:42:48.357Z,1019.06
2018-02-17T02:43:14.456Z,1019.07
2018-02-17T02:43:40.558Z,1019.07
2018-02-17T02:44:06.655Z,1019.03
2018-02-17T02:44:32.774Z,1019.04
2018-02-17T02:44:58.885Z,1019.01
2018-02-17T02:45:25.013Z,1019.03
2018-02-17T02:45:51.146Z,1019.07
2018-02-17T02:46:17.248Z,1019.03
2018-02-17T02:46:43.340Z,1019.09
2018-02-17T02:47:09.439Z,1019.05
2018-02-17T02:47:35.545Z,1019.05
2018-02-17T02:48:01.638Z,1019.05
2018-02-17T02:48:27.742Z,1019.06
2018-02-17T02:48:53.842Z,1019.08
2018-02-17T02:49:20.009Z,1019.06
2018-02-17T02:49:46.073Z,1019.03
2018-02-17T02:50:12.168Z,1019.04
2018-02-17T02:50:38.289Z,1019.07
2018-02-17T02:51:04.396Z,1019.03
2018-02-17T02:51:30.520Z,1019.05
2018-02-17T02:51:56.619Z,1019.04
2018-02-17T02:52:22.715Z,1019.03
2018-02-17T02:52:48.820Z,1019.01
2018-02-17T02:53:14.916Z,1019.03
2018-02-17T02:53:41.014Z,1019.02
2018-02-17T02:54:07.119Z,1019.01
2018-02-17T02:54:33.226Z,1019.03
2018-02-17T02:54:59.348Z,1019.03
2018-02-17T02:55:25.444Z,1019.01
2018-02-17T02:55:51.543Z,1019.01
2018-02-17T02:56:17.648Z,1019.02
2018-02-17T02:56:43.740Z,1018.99
2018-02-17T02:57:09.850Z,1018.97
2018-02-17T02:57:35.950Z,1019.01
2018-02-17T02:58:02.048Z,1018.99
2018-02-17T02:58:28.150Z,1018.96
2018-02-17T02:58:54.248Z,1018.98
2018-02-17T02:59:20.344Z,1018.98
2018-02-17T02:59:46.441Z,1019.01
2018-02-17T03:00:12.536Z,1018.99
2018-02-17T03:00:38.640Z,1018.92
2018-02-17T03:01:04.756Z,1018.95
2018-02-17T03:01:30.875Z,1018.99
2018-02-17T03:01:56.988Z,1018.97
2018-02-17T03:02:23.079Z,1018.98
2018-02-17T03:02:49.179Z,1019.02
2018-02-17T03:03:15.275Z,1019.01
2018-02-17T03:03:41.373Z,1019.06
2018-02-17T03:04:07.469Z,1019.06
2018-02-17T03:04:33.566Z,1019.05
2018-02-17T03:04:59.665Z,1019.02
2018-02-17T03:05:25.771Z,1019.05
2018-02-17T03:05:51.871Z,1019.03
2018-02-17T03:06:17.968Z,1019.02
2018-02-17T03:06:44.070Z,1019.01
2018-02-17T03:07:10.162Z,1019.02
2018-02-17T03:07:36.266Z,1019.03
2018-02-17T03:08:02.366Z,1019.03
2018-02-17T03:08:28.460Z,1019.03
2018-02-17T03:08:54.564Z,1019.05
2018-02-17T03:09:20.658Z,1019.08
2018-02-17T03:09:46.751Z,1019.05
2018-02-17T03:10:12.855Z,1019.05
2018-02-17T03:10:38.960Z,1019.04
2018-02-17T03:11:05.059Z,1019.05
2018-02-17T03:11:31.161Z,1019.06
2018-02-17T03:11:57.274Z,1019.07
2018-02-17T03:12:23.382Z,1019.06
2018-02-17T03:12:49.485Z,1019.08
2018-02-17T03:13:15.596Z,1019.07
2018-02-17T03:13:41.699Z,1019.06
2018-02-17T03:14:07.796Z,1019.06
2018-02-17T03:14:33.899Z,1019.03
2018-02-17T03:15:00.003Z,1019
2018-02-17T03:15:26.097Z,1019.04
2018-02-17T03:15:52.219Z,1019.01
2018-02-17T03:16:18.325Z,1019.02
2018-02-17T03:16:44.436Z,1019
2018-02-17T03:17:10.543Z,1018.99
2018-02-17T03:17:36.661Z,1018.98
2018-02-17T03:18:02.731Z,1019
2018-02-17T03:18:28.841Z,1018.97
2018-02-17T03:18:54.948Z,1018.96
2018-02-17T03:19:21.049Z,1018.97
2018-02-17T03:19:47.144Z,1018.97
2018-02-17T03:20:13.263Z,1018.92
2018-02-17T03:20:39.363Z,1018.9
2018-02-17T03:21:05.464Z,1018.94
2018-02-17T03:21:31.562Z,1018.98
2018-02-17T03:21:57.679Z,1018.94
2018-02-17T03:22:23.782Z,1018.92
2018-02-17T03:22:49.884Z,1018.94
2018-02-17T03:23:15.982Z,1018.93
2018-02-17T03:23:42.112Z,1018.96
2018-02-17T03:24:08.206Z,1018.94
2018-02-17T03:24:34.301Z,1018.94
2018-02-17T03:25:00.408Z,1018.92
2018-02-17T03:25:26.527Z,1018.92
2018-02-17T03:25:52.625Z,1018.91
2018-02-17T03:26:18.733Z,1018.88
2018-02-17T03:26:44.823Z,1018.91
2018-02-17T03:27:10.921Z,1018.93
2018-02-17T03:27:37.028Z,1018.9
2018-02-17T03:28:03.119Z,1018.91
2018-02-17T03:28:29.221Z,1018.89
2018-02-17T03:28:55.317Z,1018.89
2018-02-17T03:29:21.420Z,1018.89
2018-02-17T03:29:47.515Z,1018.88
2018-02-17T03:30:13.631Z,1018.86
2018-02-17T03:30:39.738Z,1018.86
2018-02-17T03:31:05.833Z,1018.88
2018-02-17T03:31:31.948Z,1018.82
2018-02-17T03:31:58.048Z,1018.8
2018-02-17T03:32:24.142Z,1018.88
2018-02-17T03:32:50.265Z,1018.9
2018-02-17T03:33:16.385Z,1018.92
2018-02-17T03:33:42.484Z,1018.92
2018-02-17T03:34:08.584Z,1018.88
2018-02-17T03:34:34.698Z,1018.91
2018-02-17T03:35:00.797Z,1018.85
2018-02-17T03:35:26.898Z,1018.88
2018-02-17T03:35:52.993Z,1018.9
2018-02-17T03:36:19.111Z,1018.86
2018-02-17T03:36:45.213Z,1018.89
2018-02-17T03:37:11.308Z,1018.86
2018-02-17T03:37:37.411Z,1018.82
2018-02-17T03:38:03.507Z,1018.84
2018-02-17T03:38:29.627Z,1018.84
2018-02-17T03:38:55.719Z,1018.82
2018-02-17T03:39:21.821Z,1018.8
2018-02-17T03:39:47.921Z,1018.8
2018-02-17T03:40:14.019Z,1018.78
2018-02-17T03:40:40.115Z,1018.81
2018-02-17T03:41:06.216Z,1018.8
2018-02-17T03:41:32.315Z,1018.79
2018-02-17T03:41:58.417Z,1018.76
2018-02-17T03:42:24.519Z,1018.81
2018-02-17T03:42:50.639Z,1018.79
2018-02-17T03:43:16.748Z,1018.76
2018-02-17T03:43:42.843Z,1018.77
2018-02-17T03:44:08.948Z,1018.72
2018-02-17T03:44:35.049Z,1018.75
2018-02-17T03:45:01.159Z,1018.76
2018-02-17T03:45:27.264Z,1018.77
2018-02-17T03:45:53.356Z,1018.8
2018-02-17T03:46:19.453Z,1018.78
2018-02-17T03:46:45.552Z,1018.79
2018-02-17T03:47:11.648Z,1018.82
2018-02-17T03:47:37.753Z,1018.75
2018-02-17T03:48:03.856Z,1018.77
2018-02-17T03:48:29.952Z,1018.83
2018-02-17T03:48:56.050Z,1018.81
2018-02-17T03:49:22.174Z,1018.78
2018-02-17T03:49:48.270Z,1018.76
2018-02-17T03:50:14.373Z,1018.79
2018-02-17T03:50:40.472Z,1018.8
2018-02-17T03:51:06.588Z,1018.74
2018-02-17T03:51:32.693Z,1018.8
2018-02-17T03:51:58.789Z,1018.78
2018-02-17T03:52:24.889Z,1018.77
2018-02-17T03:52:50.986Z,1018.79
2018-02-17T03:53:17.089Z,1018.78
2018-02-17T03:53:43.184Z,1018.78
2018-02-17T03:54:09.282Z,1018.82
2018-02-17T03:54:35.384Z,1018.75
2018-02-17T03:55:01.494Z,1018.77
2018-02-17T03:55:27.595Z,1018.75
2018-02-17T03:55:53.700Z,1018.79
2018-02-17T03:56:19.809Z,1018.75
2018-02-17T03:56:45.912Z,1018.77
2018-02-17T03:57:12.005Z,1018.74
2018-02-17T03:57:38.110Z,1018.76
2018-02-17T03:58:04.210Z,1018.76
2018-02-17T03:58:30.306Z,1018.76
2018-02-17T03:58:56.403Z,1018.75
2018-02-17T03:59:22.500Z,1018.75
2018-02-17T03:59:48.600Z,1018.73
2018-02-17T04:00:14.709Z,1018.73
2018-02-17T04:00:40.804Z,1018.7
2018-02-17T04:01:06.905Z,1018.74
2018-02-17T04:01:33.008Z,1018.73
2018-02-17T04:01:59.106Z,1018.74
2018-02-17T04:02:25.207Z,1018.72
2018-02-17T04:02:51.304Z,1018.73
2018-02-17T04:03:17.404Z,1018.71
2018-02-17T04:03:43.508Z,1018.73
2018-02-17T04:04:09.602Z,1018.73
2018-02-17T04:04:35.708Z,1018.74
2018-02-17T04:05:01.807Z,1018.76
2018-02-17T04:05:27.902Z,1018.79
2018-02-17T04:05:53.997Z,1018.77
2018-02-17T04:06:20.100Z,1018.77
2018-02-17T04:06:46.194Z,1018.8
2018-02-17T04:07:12.303Z,1018.75
2018-02-17T04:07:38.400Z,1018.78
2018-02-17T04:08:04.505Z,1018.74
2018-02-17T04:08:30.597Z,1018.72
2018-02-17T04:08:56.700Z,1018.72
2018-02-17T04:09:22.821Z,1018.75
2018-02-17T04:09:48.925Z,1018.71
2018-02-17T04:10:15.040Z,1018.69
2018-02-17T04:10:41.152Z,1018.66
2018-02-17T04:11:07.250Z,1018.67
2018-02-17T04:11:33.346Z,1018.64
2018-02-17T04:11:59.445Z,1018.65
2018-02-17T04:12:25.563Z,1018.65
2018-02-17T04:12:51.667Z,1018.63
2018-02-17T04:13:17.777Z,1018.62
2018-02-17T04:13:43.881Z,1018.58
2018-02-17T04:14:09.980Z,1018.56
2018-02-17T04:14:36.075Z,1018.59
2018-02-17T04:15:02.172Z,1018.56
2018-02-17T04:15:28.275Z,1018.61
2018-02-17T04:15:54.376Z,1018.56
2018-02-17T04:16:20.472Z,1018.59
2018-02-17T04:16:46.575Z,1018.56
2018-02-17T04:17:12.670Z,1018.59
2018-02-17T04:17:38.768Z,1018.59
2018-02-17T04:18:04.919Z,1018.57
2018-02-17T04:18:30.983Z,1018.55
2018-02-17T04:18:57.086Z,1018.58
2018-02-17T04:19:23.189Z,1018.61
2018-02-17T04:19:49.287Z,1018.56
2018-02-17T04:20:15.383Z,1018.59
2018-02-17T04:20:41.493Z,1018.55
2018-02-17T04:21:07.624Z,1018.58
2018-02-17T04:21:33.720Z,1018.58
2018-02-17T04:21:59.825Z,1018.59
2018-02-17T04:22:25.919Z,1018.6
2018-02-17T04:22:52.015Z,1018.57
2018-02-17T04:23:18.121Z,1018.6
2018-02-17T04:23:44.211Z,1018.55
2018-02-17T04:24:10.314Z,1018.53
2018-02-17T04:24:36.406Z,1018.54
2018-02-17T04:25:02.506Z,1018.58
2018-02-17T04:25:28.609Z,1018.53
2018-02-17T04:25:54.706Z,1018.52
2018-02-17T04:26:20.820Z,1018.53
2018-02-17T04:26:46.920Z,1018.52
2018-02-17T04:27:13.014Z,1018.51
2018-02-17T04:27:39.127Z,1018.52
2018-02-17T04:28:05.223Z,1018.5
2018-02-17T04:28:31.316Z,1018.5
2018-02-17T04:28:57.417Z,1018.51
2018-02-17T04:29:23.514Z,1018.49
2018-02-17T04:29:49.627Z,1018.49
2018-02-17T04:30:15.724Z,1018.5
2018-02-17T04:30:41.828Z,1018.47
2018-02-17T04:31:07.933Z,1018.49
2018-02-17T04:31:34.041Z,1018.46
2018-02-17T04:32:00.138Z,1018.48
2018-02-17T04:32:26.241Z,1018.48
2018-02-17T04:32:52.351Z,1018.44
2018-02-17T04:33:18.484Z,1018.47
2018-02-17T04:33:44.585Z,1018.45
2018-02-17T04:34:10.679Z,1018.46
2018-02-17T04:34:36.783Z,1018.45
2018-02-17T04:35:02.885Z,1018.42
2018-02-17T04:35:28.980Z,1018.5
2018-02-17T04:35:55.082Z,1018.49
2018-02-17T04:36:21.178Z,1018.46
2018-02-17T04:36:47.274Z,1018.46
2018-02-17T04:37:13.381Z,1018.42
2018-02-17T04:37:39.475Z,1018.42
2018-02-17T04:38:05.579Z,1018.38
2018-02-17T04:38:31.683Z,1018.43
2018-02-17T04:38:57.776Z,1018.39
2018-02-17T04:39:23.878Z,1018.4
2018-02-17T04:39:49.978Z,1018.36
2018-02-17T04:40:16.071Z,1018.37
2018-02-17T04:40:42.173Z,1018.4
2018-02-17T04:41:08.277Z,1018.33
2018-02-17T04:41:34.372Z,1018.38
2018-02-17T04:42:00.495Z,1018.38
2018-02-17T04:42:26.592Z,1018.35
2018-02-17T04:42:52.694Z,1018.38
2018-02-17T04:43:18.790Z,1018.37
2018-02-17T04:43:44.887Z,1018.42
2018-02-17T04:44:11.003Z,1018.4
2018-02-17T04:44:37.104Z,1018.37
2018-02-17T04:45:03.205Z,1018.38
2018-02-17T04:45:29.298Z,1018.35
2018-02-17T04:45:55.395Z,1018.32
2018-02-17T04:46:21.497Z,1018.31
2018-02-17T04:46:47.596Z,1018.28
2018-02-17T04:47:13.702Z,1018.24
2018-02-17T04:47:39.815Z,1018.29
2018-02-17T04:48:05.911Z,1018.32
2018-02-17T04:48:32.012Z,1018.33
2018-02-17T04:48:58.111Z,1018.32
2018-02-17T04:49:24.214Z,1018.29
2018-02-17T04:49:50.321Z,1018.32
2018-02-17T04:50:16.427Z,1018.29
2018-02-17T04:50:42.531Z,1018.27
2018-02-17T04:51:08.621Z,1018.24
2018-02-17T04:51:34.720Z,1018.27
2018-02-17T04:52:00.818Z,1018.28
2018-02-17T04:52:26.922Z,1018.22
2018-02-17T04:52:53.045Z,1018.19
2018-02-17T04:53:19.148Z,1018.18
2018-02-17T04:53:45.244Z,1018.18
2018-02-17T04:54:11.344Z,1018.14
2018-02-17T04:54:37.447Z,1018.13
2018-02-17T04:55:03.544Z,1018.14
2018-02-17T04:55:29.643Z,1018.12
2018-02-17T04:55:55.736Z,1018.11
2018-02-17T04:56:21.833Z,1018.11
2018-02-17T04:56:47.986Z,1018.13
2018-02-17T04:57:14.039Z,1018.14
2018-02-17T04:57:40.131Z,1018.09
2018-02-17T04:58:06.234Z,1018.08
2018-02-17T04:58:32.330Z,1018.09
2018-02-17T04:58:58.429Z,1018.09
2018-02-17T04:59:24.524Z,1018.09
2018-02-17T04:59:50.628Z,1018.03
2018-02-17T05:00:16.732Z,1018.07
2018-02-17T05:00:42.832Z,1018.05
2018-02-17T05:01:08.933Z,1018.01
2018-02-17T05:01:35.024Z,1018.08
2018-02-17T05:02:01.116Z,1018.06
2018-02-17T05:02:27.220Z,1018.08
2018-02-17T05:02:53.320Z,1018.07
2018-02-17T05:03:19.423Z,1018.1
2018-02-17T05:03:45.517Z,1018.09
2018-02-17T05:04:11.635Z,1018.1
2018-02-17T05:04:37.752Z,1018.1
2018-02-17T05:05:03.851Z,1018.08
2018-02-17T05:05:29.952Z,1018.06
2018-02-17T05:05:56.069Z,1018.08
2018-02-17T05:06:22.176Z,1018.05
2018-02-17T05:06:48.270Z,1018.04
2018-02-17T05:07:14.372Z,1018.02
2018-02-17T05:07:40.469Z,1018.02
2018-02-17T05:08:06.561Z,1018.03
2018-02-17T05:08:32.661Z,1018.04
2018-02-17T05:08:58.764Z,1018.02
2018-02-17T05:09:24.877Z,1017.98
2018-02-17T05:09:50.984Z,1018
2018-02-17T05:10:17.078Z,1017.99
2018-02-17T05:10:43.182Z,1018.02
2018-02-17T05:11:09.278Z,1017.98
2018-02-17T05:11:35.375Z,1017.97
2018-02-17T05:12:01.475Z,1017.98
2018-02-17T05:12:27.598Z,1017.98
2018-02-17T05:12:53.691Z,1017.91
2018-02-17T05:13:19.795Z,1017.91
2018-02-17T05:13:45.891Z,1017.88
2018-02-17T05:14:12.052Z,1017.89
2018-02-17T05:14:38.113Z,1017.91
2018-02-17T05:15:04.213Z,1017.88
2018-02-17T05:15:30.310Z,1017.88
2018-02-17T05:15:56.407Z,1017.9
2018-02-17T05:16:22.510Z,1017.93
2018-02-17T05:16:48.604Z,1017.94
2018-02-17T05:17:14.706Z,1017.88